createdAt,value
2019-04-04T00:01:48.229Z,13.70
2019-04-04T00:04:17.994Z,14.90
2019-04-04T00:06:46.963Z,13.73
2019-04-04T00:09:15.858Z,18.93
2019-04-04T00:11:45.170Z,15.33
2019-04-04T00:14:14.197Z,16.63
2019-04-04T00:16:43.113Z,17.93
2019-04-04T00:19:12.523Z,13.93
2019-04-04T00:21:41.674Z,12.23
2019-04-04T00:24:10.639Z,12.77
2019-04-04T00:26:41.665Z,12.73
2019-04-04T00:29:10.883Z,12.40
2019-04-04T00:31:39.914Z,11.90
2019-04-04T00:34:08.875Z,14.37
2019-04-04T00:36:37.858Z,13.60
2019-04-04T00:39:09.475Z,12.40
2019-04-04T00:41:39.326Z,13.47
2019-04-04T00:44:08.273Z,12.13
2019-04-04T00:46:37.257Z,13.43
2019-04-04T00:49:06.319Z,16.33
2019-04-04T00:51:38.680Z,13.87
2019-04-04T00:54:06.351Z,14.53
2019-04-04T00:56:35.238Z,15.17
2019-04-04T00:59:04.201Z,14.37
2019-04-04T01:01:33.237Z,14.63
2019-04-04T01:04:02.150Z,13.40
2019-04-04T01:06:33.487Z,14.90
2019-04-04T01:09:01.826Z,15.13
2019-04-04T01:11:30.935Z,13.97
2019-04-04T01:13:59.838Z,15.70
2019-04-04T01:16:28.868Z,17.30
2019-04-04T01:18:57.822Z,14.00
2019-04-04T01:21:26.787Z,14.87
2019-04-04T01:23:58.025Z,15.70
2019-04-04T01:26:27.479Z,16.47
2019-04-04T01:28:56.551Z,15.47
2019-04-04T01:31:25.510Z,17.57
2019-04-04T01:33:54.433Z,16.60
2019-04-04T01:36:25.317Z,15.37
2019-04-04T01:38:54.377Z,14.67
2019-04-04T01:41:23.353Z,14.53
2019-04-04T01:44:04.319Z,15.67
2019-04-04T01:46:23.022Z,16.90
2019-04-04T01:48:51.936Z,16.30
2019-04-04T01:51:20.769Z,20.27
2019-04-04T01:53:49.930Z,16.93
2019-04-04T01:56:18.917Z,14.20
2019-04-04T01:58:47.874Z,13.67
2019-04-04T02:01:17.136Z,15.07
2019-04-04T02:03:46.253Z,15.03
2019-04-04T02:06:15.178Z,18.33
2019-04-04T02:08:44.125Z,17.23
2019-04-04T02:11:13.121Z,13.97
2019-04-04T02:13:42.027Z,15.30
2019-04-04T02:16:10.896Z,12.83
2019-04-04T02:18:39.802Z,14.73
2019-04-04T02:21:08.638Z,14.87
2019-04-04T02:23:37.551Z,15.70
2019-04-04T02:26:06.494Z,15.37
2019-04-04T02:28:35.514Z,16.47
2019-04-04T02:31:05.983Z,14.37
2019-04-04T02:33:34.883Z,14.33
2019-04-04T02:36:03.973Z,16.33
2019-04-04T02:38:32.867Z,16.47
2019-04-04T02:41:01.988Z,16.43
2019-04-04T02:43:31.027Z,15.03
2019-04-04T02:46:00.110Z,18.70
2019-04-04T02:48:28.939Z,17.27
2019-04-04T02:50:57.913Z,15.07
2019-04-04T02:53:26.996Z,15.93
2019-04-04T02:55:55.837Z,14.60
2019-04-04T02:58:24.919Z,15.80
2019-04-04T03:00:53.940Z,15.90
2019-04-04T03:03:22.931Z,16.70
2019-04-04T03:05:52.412Z,16.63
2019-04-04T03:08:21.583Z,16.73
2019-04-04T03:10:51.004Z,17.53
2019-04-04T03:13:20.061Z,17.50
2019-04-04T03:15:49.091Z,17.83
2019-04-04T03:18:18.025Z,16.43
2019-04-04T03:20:50.315Z,16.50
2019-04-04T03:23:17.561Z,14.93
2019-04-04T03:25:47.296Z,16.83
2019-04-04T03:28:17.304Z,14.00
2019-04-04T03:30:52.509Z,16.03
2019-04-04T03:33:16.885Z,17.90
2019-04-04T03:35:45.872Z,14.07
2019-04-04T03:38:15.255Z,17.97
2019-04-04T03:40:44.078Z,15.33
2019-04-04T03:43:15.817Z,14.23
2019-04-04T03:45:44.118Z,14.90
2019-04-04T03:48:17.019Z,19.77
2019-04-04T03:50:43.978Z,14.50
2019-04-04T03:53:16.298Z,15.10
2019-04-04T03:55:43.563Z,13.87
2019-04-04T03:58:12.665Z,12.73
2019-04-04T04:00:41.583Z,14.27
2019-04-04T04:03:10.574Z,15.63
2019-04-04T04:05:40.936Z,14.47
2019-04-04T04:08:09.998Z,13.67
2019-04-04T04:10:38.889Z,12.67
2019-04-04T04:13:08.704Z,14.73
2019-04-04T04:15:37.644Z,14.20
2019-04-04T04:18:06.737Z,12.43
2019-04-04T04:20:37.487Z,14.67
2019-04-04T04:23:06.390Z,15.27
2019-04-04T04:25:36.729Z,15.67
2019-04-04T04:28:06.095Z,15.00
2019-04-04T04:30:39.331Z,14.07
2019-04-04T04:33:05.793Z,14.60
2019-04-04T04:35:35.137Z,17.23
2019-04-04T04:38:04.214Z,20.30
2019-04-04T04:40:33.170Z,16.90
2019-04-04T04:43:02.114Z,17.33
2019-04-04T04:45:31.070Z,17.10
2019-04-04T04:48:00.034Z,16.23
2019-04-04T04:50:29.030Z,15.20
2019-04-04T04:52:57.984Z,16.60
2019-04-04T04:55:27.499Z,16.40
2019-04-04T04:57:57.275Z,15.73
2019-04-04T05:00:27.767Z,16.07
2019-04-04T05:02:56.836Z,15.90
2019-04-04T05:05:25.731Z,16.40
2019-04-04T05:07:55.117Z,36.03
2019-04-04T05:10:24.417Z,38.23
2019-04-04T05:12:53.796Z,29.10
2019-04-04T05:15:22.837Z,22.43
2019-04-04T05:17:51.834Z,20.77
2019-04-04T05:20:20.818Z,16.03
2019-04-04T05:22:49.691Z,14.27
2019-04-04T05:25:18.805Z,17.80
2019-04-04T05:27:47.753Z,15.83
2019-04-04T05:30:18.853Z,21.00
2019-04-04T05:32:47.434Z,17.40
2019-04-04T05:35:16.363Z,16.67
2019-04-04T05:37:45.329Z,17.27
2019-04-04T05:40:15.807Z,18.60
2019-04-04T05:42:44.820Z,16.40
2019-04-04T05:45:14.300Z,21.97
2019-04-04T05:47:44.238Z,15.27
2019-04-04T05:50:16.322Z,16.33
2019-04-04T05:52:44.222Z,18.00
2019-04-04T05:55:13.285Z,16.57
2019-04-04T05:57:42.276Z,16.93
2019-04-04T06:00:14.024Z,14.53
2019-04-04T06:02:43.915Z,14.53
2019-04-04T06:05:13.378Z,12.97
2019-04-04T06:07:42.353Z,16.80
2019-04-04T06:10:12.326Z,14.17
2019-04-04T06:12:41.339Z,14.97
2019-04-04T06:15:10.523Z,17.30
2019-04-04T06:17:39.950Z,14.20
2019-04-04T06:20:09.366Z,18.40
2019-04-04T06:22:38.342Z,16.93
2019-04-04T06:25:07.984Z,18.17
2019-04-04T06:27:39.888Z,15.73
2019-04-04T06:30:08.111Z,17.07
2019-04-04T06:32:38.839Z,14.37
2019-04-04T06:35:07.843Z,14.07
2019-04-04T06:37:38.516Z,17.10
2019-04-04T06:40:07.885Z,17.13
2019-04-04T06:42:37.152Z,14.43
2019-04-04T06:45:06.827Z,16.37
2019-04-04T06:47:35.875Z,18.47
2019-04-04T06:50:08.171Z,15.73
2019-04-04T06:52:36.073Z,14.07
2019-04-04T06:55:05.500Z,18.40
2019-04-04T06:57:36.622Z,14.33
2019-04-04T07:00:06.790Z,18.67
2019-04-04T07:02:35.757Z,17.63
2019-04-04T07:05:06.325Z,18.40
2019-04-04T07:07:35.768Z,15.23
2019-04-04T07:10:04.992Z,14.30
2019-04-04T07:12:33.943Z,18.27
2019-04-04T07:15:02.854Z,16.17
2019-04-04T07:17:31.719Z,15.07
2019-04-04T07:20:00.875Z,18.63
2019-04-04T07:22:29.865Z,15.30
2019-04-04T07:25:01.167Z,15.43
2019-04-04T07:27:29.872Z,17.60
2019-04-04T07:29:58.746Z,17.70
2019-04-04T07:32:27.698Z,16.37
2019-04-04T07:34:56.654Z,17.27
2019-04-04T07:37:25.502Z,19.80
2019-04-04T07:39:54.384Z,17.30
2019-04-04T07:42:23.253Z,20.33
2019-04-04T07:44:54.391Z,14.93
2019-04-04T07:47:22.959Z,17.63
2019-04-04T07:49:53.223Z,31.93
2019-04-04T07:52:22.359Z,45.07
2019-04-04T07:54:51.602Z,21.63
2019-04-04T07:57:20.463Z,23.03
2019-04-04T07:59:49.482Z,19.13
2019-04-04T08:02:18.309Z,20.63
2019-04-04T08:04:47.547Z,19.00
2019-04-04T08:07:16.689Z,19.17
2019-04-04T08:09:45.690Z,17.87
2019-04-04T08:12:14.617Z,17.97
2019-04-04T08:14:43.897Z,21.60
2019-04-04T08:17:12.937Z,17.77
2019-04-04T08:19:42.022Z,16.80
2019-04-04T08:22:11.057Z,17.77
2019-04-04T08:24:40.217Z,19.53
2019-04-04T08:27:09.181Z,17.40
2019-04-04T08:29:38.260Z,17.20
2019-04-04T08:32:07.474Z,16.50
2019-04-04T08:34:36.647Z,17.67
2019-04-04T08:37:05.762Z,19.50
2019-04-04T08:39:34.695Z,16.40
2019-04-04T08:42:03.731Z,18.17
2019-04-04T08:44:32.790Z,19.50
2019-04-04T08:47:01.655Z,17.50
2019-04-04T08:49:30.677Z,17.57
2019-04-04T08:51:59.633Z,15.53
2019-04-04T08:54:28.702Z,14.90
2019-04-04T08:56:57.949Z,13.07
2019-04-04T08:59:26.977Z,12.70
2019-04-04T09:01:56.008Z,12.50
2019-04-04T09:04:24.810Z,14.87
2019-04-04T09:06:53.814Z,13.23
2019-04-04T09:09:22.807Z,12.20
2019-04-04T09:11:52.206Z,12.60
2019-04-04T09:14:21.041Z,11.03
2019-04-04T09:16:49.966Z,11.77
2019-04-04T09:19:18.934Z,13.00
2019-04-04T09:21:47.909Z,11.77
2019-04-04T09:24:16.886Z,13.23
2019-04-04T09:26:45.869Z,11.33
2019-04-04T09:29:14.926Z,10.30
2019-04-04T09:31:44.034Z,12.33
2019-04-04T09:34:13.021Z,11.23
2019-04-04T09:36:42.114Z,10.63
2019-04-04T09:39:11.340Z,10.70
2019-04-04T09:41:40.369Z,9.73
2019-04-04T09:44:09.229Z,9.80
2019-04-04T09:46:38.143Z,9.00
2019-04-04T09:49:07.322Z,8.77
2019-04-04T09:51:36.332Z,9.17
2019-04-04T09:54:05.642Z,8.07
2019-04-04T09:56:34.888Z,9.40
2019-04-04T09:59:03.788Z,8.47
2019-04-04T10:01:32.698Z,9.27
2019-04-04T10:04:01.733Z,8.67
2019-04-04T10:06:30.754Z,8.77
2019-04-04T10:08:59.722Z,8.37
2019-04-04T10:11:28.558Z,8.93
2019-04-04T10:13:57.802Z,8.33
2019-04-04T10:16:26.702Z,7.43
2019-04-04T10:18:55.981Z,8.90
2019-04-04T10:21:24.930Z,9.27
2019-04-04T10:23:53.819Z,9.03
2019-04-04T10:26:22.763Z,8.87
2019-04-04T10:28:51.733Z,9.43
2019-04-04T10:31:20.935Z,8.60
2019-04-04T10:33:49.817Z,10.87
2019-04-04T10:36:18.910Z,10.57
2019-04-04T10:38:47.854Z,9.67
2019-04-04T10:41:16.775Z,10.20
2019-04-04T10:43:45.659Z,9.37
2019-04-04T10:46:14.534Z,9.13
2019-04-04T10:48:43.518Z,10.60
2019-04-04T10:51:12.445Z,9.10
2019-04-04T10:53:41.367Z,9.87
2019-04-04T10:56:10.310Z,9.73
2019-04-04T10:58:39.154Z,10.63
2019-04-04T11:01:07.963Z,9.83
2019-04-04T11:03:37.315Z,12.20
2019-04-04T11:06:06.641Z,9.30
2019-04-04T11:08:35.565Z,8.90
2019-04-04T11:11:04.527Z,10.70
2019-04-04T11:13:34.144Z,12.87
2019-04-04T11:16:03.257Z,10.17
2019-04-04T11:18:32.541Z,9.73
2019-04-04T11:21:01.430Z,9.00
2019-04-04T11:23:30.398Z,9.00
2019-04-04T11:25:59.469Z,10.87
2019-04-04T11:28:28.460Z,9.87
2019-04-04T11:30:57.674Z,9.07
2019-04-04T11:33:26.521Z,10.00
2019-04-04T11:35:55.855Z,9.77
2019-04-04T11:38:24.729Z,11.90
2019-04-04T11:40:54.046Z,9.77
2019-04-04T11:43:22.957Z,10.93
2019-04-04T11:45:51.985Z,8.43
2019-04-04T11:48:20.962Z,8.70
2019-04-04T11:50:50.034Z,8.73
2019-04-04T11:53:19.155Z,9.27
2019-04-04T11:55:48.070Z,9.23
2019-04-04T11:58:17.308Z,8.33
2019-04-04T12:00:48.358Z,9.33
2019-04-04T12:03:17.689Z,9.07
2019-04-04T12:05:46.609Z,7.13
2019-04-04T12:08:15.495Z,9.20
2019-04-04T12:10:44.469Z,7.20
2019-04-04T12:13:13.291Z,5.57
2019-04-04T12:15:42.225Z,6.00
2019-04-04T12:18:11.269Z,5.17
2019-04-04T12:20:43.054Z,6.90
2019-04-04T12:23:11.098Z,7.10
2019-04-04T12:25:40.631Z,6.87
2019-04-04T12:28:09.703Z,6.83
2019-04-04T12:30:38.814Z,6.37
2019-04-04T12:33:07.821Z,5.13
2019-04-04T12:35:36.894Z,5.10
2019-04-04T12:38:05.978Z,5.80
2019-04-04T12:40:34.980Z,6.63
2019-04-04T12:43:04.032Z,6.53
2019-04-04T12:45:32.987Z,5.93
2019-04-04T12:48:02.323Z,6.37
2019-04-04T12:50:31.936Z,5.50
2019-04-04T12:53:00.886Z,6.00
2019-04-04T12:55:30.134Z,4.67
2019-04-04T12:57:59.260Z,5.20
2019-04-04T13:00:28.320Z,4.67
2019-04-04T13:02:57.638Z,4.83
2019-04-04T13:05:26.558Z,7.10
2019-04-04T13:07:55.645Z,4.50
2019-04-04T13:10:32.870Z,4.20
2019-04-04T13:12:55.291Z,5.33
2019-04-04T13:15:24.366Z,4.33
2019-04-04T13:17:53.306Z,5.47
2019-04-04T13:20:22.233Z,4.67
2019-04-04T13:22:51.137Z,4.13
2019-04-04T13:25:20.077Z,4.93
2019-04-04T13:27:49.073Z,6.00
2019-04-04T13:30:18.171Z,4.13
2019-04-04T13:32:47.181Z,3.50
2019-04-04T13:35:16.119Z,4.60
2019-04-04T13:37:45.083Z,3.97
2019-04-04T13:40:14.927Z,4.40
2019-04-04T13:42:43.880Z,4.13
2019-04-04T13:45:13.070Z,4.17
2019-04-04T13:47:42.052Z,4.03
2019-04-04T13:50:12.600Z,4.10
2019-04-04T13:52:41.823Z,3.50
2019-04-04T13:55:11.049Z,4.93
2019-04-04T13:57:40.178Z,4.93
2019-04-04T14:00:09.982Z,4.63
2019-04-04T14:02:39.011Z,3.53
2019-04-04T14:05:10.659Z,4.93
2019-04-04T14:07:39.581Z,4.20
2019-04-04T14:10:08.846Z,4.50
2019-04-04T14:12:37.845Z,3.67
2019-04-04T14:15:08.159Z,4.37
2019-04-04T14:17:37.226Z,4.37
2019-04-04T14:20:07.026Z,5.40
2019-04-04T14:22:35.963Z,5.40
2019-04-04T14:25:05.617Z,5.53
2019-04-04T14:27:34.670Z,3.73
2019-04-04T14:30:03.706Z,6.30
2019-04-04T14:32:33.393Z,5.67
2019-04-04T14:35:02.229Z,6.17
2019-04-04T14:37:31.318Z,4.10
2019-04-04T14:40:00.423Z,4.13
2019-04-04T14:42:29.339Z,4.17
2019-04-04T14:44:59.910Z,4.63
2019-04-04T14:47:28.962Z,3.90
2019-04-04T14:49:58.221Z,7.03
2019-04-04T14:52:27.327Z,4.97
2019-04-04T14:54:56.186Z,4.40
2019-04-04T14:57:25.100Z,4.10
2019-04-04T14:59:53.922Z,4.70
2019-04-04T15:02:22.892Z,4.70
2019-04-04T15:04:51.800Z,4.80
2019-04-04T15:07:20.850Z,4.87
2019-04-04T15:09:49.866Z,5.53
2019-04-04T15:12:18.780Z,4.73
2019-04-04T15:14:47.765Z,4.83
2019-04-04T15:17:16.711Z,6.27
2019-04-04T15:19:45.746Z,5.83
2019-04-04T15:22:14.730Z,8.83
2019-04-04T15:24:43.824Z,6.47
2019-04-04T15:27:13.090Z,5.20
2019-04-04T15:29:41.945Z,5.50
2019-04-04T15:32:11.833Z,5.53
2019-04-04T15:34:40.748Z,6.23
2019-04-04T15:37:09.698Z,5.63
2019-04-04T15:39:38.667Z,5.53
2019-04-04T15:42:07.573Z,5.43
2019-04-04T15:44:36.895Z,4.83
2019-04-04T15:47:05.874Z,5.70
2019-04-04T15:49:34.696Z,5.57
2019-04-04T15:52:03.600Z,5.57
2019-04-04T15:54:32.979Z,4.70
2019-04-04T15:57:02.262Z,5.73
2019-04-04T15:59:31.501Z,5.93
2019-04-04T16:02:00.511Z,5.23
2019-04-04T16:04:29.523Z,6.30
2019-04-04T16:06:58.521Z,6.03
2019-04-04T16:09:27.381Z,6.07
2019-04-04T16:11:56.378Z,6.73
2019-04-04T16:14:25.462Z,6.00
2019-04-04T16:16:54.824Z,6.33
2019-04-04T16:19:23.769Z,6.27
2019-04-04T16:21:52.617Z,5.80
2019-04-04T16:24:21.612Z,8.50
2019-04-04T16:26:50.611Z,6.60
2019-04-04T16:29:19.549Z,6.77
2019-04-04T16:31:48.451Z,5.87
2019-04-04T16:34:17.541Z,6.50
2019-04-04T16:36:46.580Z,6.50
2019-04-04T16:39:15.489Z,6.30
2019-04-04T16:41:44.505Z,6.60
2019-04-04T16:44:13.337Z,6.67
2019-04-04T16:46:42.361Z,5.80
2019-04-04T16:49:11.178Z,6.53
2019-04-04T16:51:40.261Z,5.93
2019-04-04T16:54:09.058Z,6.97
2019-04-04T16:56:38.108Z,7.57
2019-04-04T16:59:06.993Z,7.63
2019-04-04T17:01:36.028Z,7.80
2019-04-04T17:04:05.415Z,60.47
2019-04-04T17:06:34.394Z,6.83
2019-04-04T17:09:04.580Z,6.67
2019-04-04T17:11:33.853Z,6.90
2019-04-04T17:14:02.713Z,6.40
2019-04-04T17:16:31.568Z,6.33
2019-04-04T17:19:00.874Z,8.23
2019-04-04T17:21:29.821Z,8.40
2019-04-04T17:23:58.722Z,8.93
2019-04-04T17:26:27.534Z,9.73
2019-04-04T17:28:56.532Z,14.87
2019-04-04T17:31:26.269Z,18.00
2019-04-04T17:33:55.471Z,11.00
2019-04-04T17:36:24.879Z,10.00
2019-04-04T17:38:55.346Z,8.77
2019-04-04T17:41:24.810Z,9.50
2019-04-04T17:43:54.094Z,10.47
2019-04-04T17:46:23.079Z,11.90
2019-04-04T17:48:51.971Z,11.50
2019-04-04T17:51:20.906Z,10.70
2019-04-04T17:53:52.418Z,12.60
2019-04-04T17:56:21.203Z,12.03
2019-04-04T17:58:50.358Z,8.77
2019-04-04T18:01:19.186Z,12.07
2019-04-04T18:03:48.813Z,10.50
2019-04-04T18:06:17.725Z,10.60
2019-04-04T18:08:46.987Z,11.50
2019-04-04T18:11:15.875Z,10.73
2019-04-04T18:13:44.670Z,11.60
2019-04-04T18:16:14.015Z,10.83
2019-04-04T18:18:42.870Z,10.67
2019-04-04T18:21:11.883Z,10.37
2019-04-04T18:23:40.741Z,9.77
2019-04-04T18:26:09.677Z,11.43
2019-04-04T18:28:39.562Z,9.87
2019-04-04T18:31:08.611Z,11.00
2019-04-04T18:33:37.965Z,9.30
2019-04-04T18:36:07.070Z,10.47
2019-04-04T18:38:35.963Z,10.07
2019-04-04T18:41:05.390Z,10.00
2019-04-04T18:43:34.365Z,10.33
2019-04-04T18:46:03.714Z,9.43
2019-04-04T18:48:32.702Z,13.73
2019-04-04T18:51:01.621Z,11.67
2019-04-04T18:53:30.986Z,15.17
2019-04-04T18:55:59.785Z,15.53
2019-04-04T18:58:29.038Z,14.97
2019-04-04T19:00:58.033Z,17.87
2019-04-04T19:03:29.597Z,20.53
2019-04-04T19:05:58.225Z,17.50
2019-04-04T19:08:27.061Z,15.10
2019-04-04T19:10:56.393Z,13.23
2019-04-04T19:13:25.633Z,15.53
2019-04-04T19:15:54.749Z,13.17
2019-04-04T19:18:24.094Z,12.97
2019-04-04T19:20:53.227Z,12.60
2019-04-04T19:23:22.302Z,16.23
2019-04-04T19:25:51.496Z,13.07
2019-04-04T19:28:20.575Z,14.00
2019-04-04T19:30:49.469Z,16.30
2019-04-04T19:33:18.549Z,22.50
2019-04-04T19:35:48.583Z,19.47
2019-04-04T19:38:17.631Z,18.27
2019-04-04T19:40:46.667Z,17.67
2019-04-04T19:43:18.315Z,19.90
2019-04-04T19:45:46.722Z,18.57
2019-04-04T19:48:15.572Z,21.07
2019-04-04T19:50:44.583Z,18.73
2019-04-04T19:53:13.635Z,17.83
2019-04-04T19:55:42.657Z,21.23
2019-04-04T19:58:11.998Z,16.07
2019-04-04T20:00:41.129Z,19.87
2019-04-04T20:03:10.082Z,22.07
2019-04-04T20:05:39.073Z,19.03
2019-04-04T20:08:08.029Z,19.27
2019-04-04T20:10:37.075Z,17.53
2019-04-04T20:13:06.051Z,18.07
2019-04-04T20:15:34.977Z,19.20
2019-04-04T20:18:04.118Z,20.03
2019-04-04T20:20:33.182Z,18.83
2019-04-04T20:23:02.064Z,16.20
2019-04-04T20:25:31.253Z,15.97
2019-04-04T20:28:00.248Z,20.30
2019-04-04T20:30:38.825Z,17.37
2019-04-04T20:33:07.957Z,15.90
2019-04-04T20:35:37.158Z,18.30
2019-04-04T20:38:06.091Z,17.23
2019-04-04T20:40:35.006Z,16.97
2019-04-04T20:43:03.931Z,15.97
2019-04-04T20:45:32.743Z,21.87
2019-04-04T20:48:01.836Z,28.07
2019-04-04T20:50:30.719Z,19.23
2019-04-04T20:52:59.650Z,17.97
2019-04-04T20:55:29.130Z,15.60
2019-04-04T20:57:58.052Z,15.73
2019-04-04T21:00:26.921Z,18.33
2019-04-04T21:02:55.945Z,13.00
2019-04-04T21:05:24.756Z,14.87
2019-04-04T21:07:53.710Z,12.33
2019-04-04T21:10:22.919Z,13.43
2019-04-04T21:12:51.930Z,10.43
2019-04-04T21:15:20.866Z,9.73
2019-04-04T21:17:49.874Z,11.23
2019-04-04T21:20:18.962Z,13.17
2019-04-04T21:22:47.881Z,12.40
2019-04-04T21:25:16.827Z,13.50
2019-04-04T21:27:45.727Z,12.50
2019-04-04T21:30:14.958Z,13.10
2019-04-04T21:32:43.764Z,11.17
2019-04-04T21:35:12.682Z,11.87
2019-04-04T21:37:41.501Z,11.03
2019-04-04T21:40:10.559Z,11.27
2019-04-04T21:42:39.380Z,10.27
2019-04-04T21:45:08.515Z,13.50
2019-04-04T21:47:37.385Z,11.83
2019-04-04T21:50:08.042Z,10.57
2019-04-04T21:52:36.963Z,10.40
2019-04-04T21:55:06.397Z,12.07
2019-04-04T21:57:35.634Z,11.40
2019-04-04T22:00:06.681Z,11.90
2019-04-04T22:02:36.056Z,12.30
2019-04-04T22:05:06.276Z,12.47
2019-04-04T22:07:35.270Z,12.67
2019-04-04T22:10:04.871Z,13.13
2019-04-04T22:12:33.768Z,14.93
2019-04-04T22:15:02.754Z,15.07
2019-04-04T22:17:31.715Z,11.03
2019-04-04T22:20:00.555Z,13.60
2019-04-04T22:22:29.786Z,14.27
2019-04-04T22:24:58.606Z,11.90
2019-04-04T22:27:27.648Z,10.13
2019-04-04T22:29:57.095Z,11.47
2019-04-04T22:32:26.062Z,12.73
2019-04-04T22:34:54.983Z,12.00
2019-04-04T22:37:23.887Z,13.73
2019-04-04T22:39:53.156Z,17.20
2019-04-04T22:42:22.390Z,14.53
2019-04-04T22:44:52.210Z,12.47
2019-04-04T22:47:21.565Z,12.50
2019-04-04T22:49:51.066Z,12.67
2019-04-04T22:52:19.952Z,14.73
2019-04-04T22:54:48.779Z,13.23
2019-04-04T22:57:17.644Z,14.03
2019-04-04T22:59:46.521Z,16.93
2019-04-04T23:02:15.454Z,13.60
2019-04-04T23:04:44.636Z,14.70
2019-04-04T23:07:13.576Z,13.47
2019-04-04T23:09:42.658Z,14.47
2019-04-04T23:12:11.479Z,11.53
2019-04-04T23:14:47.881Z,13.50
2019-04-04T23:17:10.959Z,18.67
2019-04-04T23:19:40.009Z,14.17
2019-04-04T23:22:08.981Z,16.43
2019-04-04T23:38:32.850Z,15.40
2019-04-04T23:41:02.003Z,17.77
2019-04-04T23:43:30.945Z,16.73
2019-04-04T23:45:59.851Z,18.00
2019-04-04T23:48:28.910Z,19.27
2019-04-04T23:50:57.782Z,16.63
2019-04-04T23:53:26.644Z,15.70
2019-04-04T23:55:55.474Z,17.73
2019-04-04T23:58:24.324Z,17.93
